sensor_id;sensor_type;location;lat;lon;timestamp;temperature;humidity
47168;DHT22;32931;47.778;17.806;2022-09-09T00:03:48;19.40;99.90
47168;DHT22;32931;47.778;17.806;2022-09-09T00:06:27;19.40;99.90
47168;DHT22;32931;47.778;17.806;2022-09-09T00:11:42;19.30;99.90
47168;DHT22;32931;47.778;17.806;2022-09-09T00:14:17;19.30;99.90
47168;DHT22;32931;47.778;17.806;2022-09-09T00:16:51;19.30;99.90
47168;DHT22;32931;47.778;17.806;2022-09-09T00:19:41;19.30;99.90
47168;DHT22;32931;47.778;17.806;2022-09-09T00:22:20;19.30;99.90
47168;DHT22;32931;47.778;17.806;2022-09-09T00:24:49;19.30;99.90
47168;DHT22;32931;47.778;17.806;2022-09-09T00:30:18;19.20;99.90
47168;DHT22;32931;47.778;17.806;2022-09-09T00:32:54;19.20;99.90
47168;DHT22;32931;47.778;17.806;2022-09-09T00:35:40;19.10;99.90
47168;DHT22;32931;47.778;17.806;2022-09-09T00:38:31;19.10;99.90
47168;DHT22;32931;47.778;17.806;2022-09-09T00:43:38;19.10;99.90
47168;DHT22;32931;47.778;17.806;2022-09-09T00:46:23;19.00;99.90
47168;DHT22;32931;47.778;17.806;2022-09-09T01:00:42;18.90;99.90
47168;DHT22;32931;47.778;17.806;2022-09-09T01:03:04;18.90;99.90
47168;DHT22;32931;47.778;17.806;2022-09-09T01:05:35;18.90;99.90
47168;DHT22;32931;47.778;17.806;2022-09-09T01:10:56;18.90;99.90
47168;DHT22;32931;47.778;17.806;2022-09-09T01:13:29;18.90;99.90
47168;DHT22;32931;47.778;17.806;2022-09-09T01:16:01;18.90;99.90
47168;DHT22;32931;47.778;17.806;2022-09-09T01:18:52;18.80;99.90
47168;DHT22;32931;47.778;17.806;2022-09-09T01:26:42;18.60;99.90
47168;DHT22;32931;47.778;17.806;2022-09-09T01:29:12;18.70;99.90
47168;DHT22;32931;47.778;17.806;2022-09-09T01:31:42;18.70;99.90
47168;DHT22;32931;47.778;17.806;2022-09-09T01:34:12;18.80;99.90
47168;DHT22;32931;47.778;17.806;2022-09-09T01:36:43;18.90;99.90
47168;DHT22;32931;47.778;17.806;2022-09-09T01:39:10;18.80;99.90
47168;DHT22;32931;47.778;17.806;2022-09-09T01:41:37;18.80;99.90
47168;DHT22;32931;47.778;17.806;2022-09-09T01:44:04;18.80;99.90
47168;DHT22;32931;47.778;17.806;2022-09-09T01:46:31;18.90;99.90
47168;DHT22;32931;47.778;17.806;2022-09-09T01:48:57;18.90;99.90
47168;DHT22;32931;47.778;17.806;2022-09-09T01:51:24;18.80;99.90
47168;DHT22;32931;47.778;17.806;2022-09-09T01:53:51;18.80;99.90
47168;DHT22;32931;47.778;17.806;2022-09-09T01:59:07;18.70;99.90
47168;DHT22;32931;47.778;17.806;2022-09-09T02:12:46;18.70;99.90
47168;DHT22;32931;47.778;17.806;2022-09-09T02:15:26;18.80;99.90
47168;DHT22;32931;47.778;17.806;2022-09-09T02:17:58;18.80;99.90
47168;DHT22;32931;47.778;17.806;2022-09-09T02:20:26;18.80;99.90
47168;DHT22;32931;47.778;17.806;2022-09-09T02:22:54;18.80;99.90
47168;DHT22;32931;47.778;17.806;2022-09-09T02:25:24;18.80;99.90
47168;DHT22;32931;47.778;17.806;2022-09-09T02:27:51;18.80;99.90
47168;DHT22;32931;47.778;17.806;2022-09-09T02:30:18;18.80;99.90
47168;DHT22;32931;47.778;17.806;2022-09-09T02:32:47;18.70;99.90
47168;DHT22;32931;47.778;17.806;2022-09-09T02:35:19;18.80;99.90
47168;DHT22;32931;47.778;17.806;2022-09-09T02:37:46;18.70;99.90
47168;DHT22;32931;47.778;17.806;2022-09-09T02:40:14;18.70;99.90
47168;DHT22;32931;47.778;17.806;2022-09-09T02:42:45;18.70;99.90
47168;DHT22;32931;47.778;17.806;2022-09-09T02:45:14;18.70;99.90
47168;DHT22;32931;47.778;17.806;2022-09-09T02:50:33;18.50;99.90
47168;DHT22;32931;47.778;17.806;2022-09-09T02:53:11;18.50;99.90
47168;DHT22;32931;47.778;17.806;2022-09-09T02:55:47;18.50;99.90
47168;DHT22;32931;47.778;17.806;2022-09-09T02:58:17;18.50;99.90
47168;DHT22;32931;47.778;17.806;2022-09-09T03:00:47;18.40;99.90
47168;DHT22;32931;47.778;17.806;2022-09-09T03:03:14;18.40;99.90
47168;DHT22;32931;47.778;17.806;2022-09-09T03:05:43;18.30;99.90
47168;DHT22;32931;47.778;17.806;2022-09-09T03:08:10;18.30;99.90
47168;DHT22;32931;47.778;17.806;2022-09-09T03:10:36;18.30;99.90
47168;DHT22;32931;47.778;17.806;2022-09-09T03:13:03;18.40;99.90
47168;DHT22;32931;47.778;17.806;2022-09-09T03:15:32;18.30;99.90
47168;DHT22;32931;47.778;17.806;2022-09-09T03:17:58;18.10;99.90
47168;DHT22;32931;47.778;17.806;2022-09-09T03:20:26;18.10;99.90
47168;DHT22;32931;47.778;17.806;2022-09-09T03:22:53;18.10;99.90
47168;DHT22;32931;47.778;17.806;2022-09-09T03:25:20;18.20;99.90
47168;DHT22;32931;47.778;17.806;2022-09-09T03:27:50;18.10;99.90
47168;DHT22;32931;47.778;17.806;2022-09-09T03:30:18;18.10;99.90
47168;DHT22;32931;47.778;17.806;2022-09-09T03:32:45;18.10;99.90
47168;DHT22;32931;47.778;17.806;2022-09-09T03:35:11;18.10;99.90
47168;DHT22;32931;47.778;17.806;2022-09-09T03:37:37;18.00;99.90
47168;DHT22;32931;47.778;17.806;2022-09-09T03:40:05;18.00;99.90
47168;DHT22;32931;47.778;17.806;2022-09-09T03:42:32;18.00;99.90
47168;DHT22;32931;47.778;17.806;2022-09-09T03:44:58;18.00;99.90
47168;DHT22;32931;47.778;17.806;2022-09-09T03:47:25;18.00;99.90
47168;DHT22;32931;47.778;17.806;2022-09-09T03:49:51;18.00;99.90
47168;DHT22;32931;47.778;17.806;2022-09-09T03:52:17;18.00;99.90
47168;DHT22;32931;47.778;17.806;2022-09-09T03:54:44;18.00;99.90
47168;DHT22;32931;47.778;17.806;2022-09-09T03:57:10;18.00;99.90
47168;DHT22;32931;47.778;17.806;2022-09-09T03:59:37;18.00;99.90
47168;DHT22;32931;47.778;17.806;2022-09-09T04:02:03;18.10;99.90
47168;DHT22;32931;47.778;17.806;2022-09-09T04:04:30;18.10;99.90
47168;DHT22;32931;47.778;17.806;2022-09-09T04:06:56;18.20;99.90
47168;DHT22;32931;47.778;17.806;2022-09-09T04:09:22;18.10;99.90
47168;DHT22;32931;47.778;17.806;2022-09-09T04:11:49;18.10;99.90
47168;DHT22;32931;47.778;17.806;2022-09-09T04:14:15;18.10;99.90
47168;DHT22;32931;47.778;17.806;2022-09-09T04:16:41;18.20;99.90
47168;DHT22;32931;47.778;17.806;2022-09-09T04:19:11;18.20;99.90
47168;DHT22;32931;47.778;17.806;2022-09-09T04:21:41;18.20;99.90
47168;DHT22;32931;47.778;17.806;2022-09-09T04:24:08;18.10;99.90
47168;DHT22;32931;47.778;17.806;2022-09-09T04:26:36;18.10;99.90
47168;DHT22;32931;47.778;17.806;2022-09-09T04:29:05;18.10;99.90
47168;DHT22;32931;47.778;17.806;2022-09-09T04:31:33;18.10;99.90
47168;DHT22;32931;47.778;17.806;2022-09-09T04:34:00;18.10;99.90
47168;DHT22;32931;47.778;17.806;2022-09-09T04:36:32;18.10;99.90
47168;DHT22;32931;47.778;17.806;2022-09-09T04:38:58;18.20;99.90
47168;DHT22;32931;47.778;17.806;2022-09-09T04:41:24;18.20;99.90
47168;DHT22;32931;47.778;17.806;2022-09-09T04:43:51;18.20;99.90
47168;DHT22;32931;47.778;17.806;2022-09-09T04:46:20;18.30;99.90
47168;DHT22;32931;47.778;17.806;2022-09-09T04:48:46;18.20;99.90
47168;DHT22;32931;47.778;17.806;2022-09-09T04:51:14;18.20;99.90
47168;DHT22;32931;47.778;17.806;2022-09-09T04:53:41;18.20;99.90
47168;DHT22;32931;47.778;17.806;2022-09-09T04:56:09;18.20;99.90
47168;DHT22;32931;47.778;17.806;2022-09-09T04:58:36;18.30;99.90
47168;DHT22;32931;47.778;17.806;2022-09-09T05:01:08;18.30;99.90
47168;DHT22;32931;47.778;17.806;2022-09-09T05:03:34;18.40;99.90
47168;DHT22;32931;47.778;17.806;2022-09-09T05:06:11;18.30;99.90
47168;DHT22;32931;47.778;17.806;2022-09-09T05:08:39;18.40;99.90
47168;DHT22;32931;47.778;17.806;2022-09-09T05:11:16;18.20;99.90
47168;DHT22;32931;47.778;17.806;2022-09-09T05:13:43;18.20;99.90
47168;DHT22;32931;47.778;17.806;2022-09-09T05:16:10;18.10;99.90
47168;DHT22;32931;47.778;17.806;2022-09-09T05:18:38;18.10;99.90
47168;DHT22;32931;47.778;17.806;2022-09-09T05:21:05;18.10;99.90
47168;DHT22;32931;47.778;17.806;2022-09-09T05:23:33;18.00;99.90
47168;DHT22;32931;47.778;17.806;2022-09-09T05:26:00;18.00;99.90
47168;DHT22;32931;47.778;17.806;2022-09-09T05:28:27;18.00;99.90
47168;DHT22;32931;47.778;17.806;2022-09-09T05:30:58;17.90;99.90
47168;DHT22;32931;47.778;17.806;2022-09-09T05:33:25;17.90;99.90
47168;DHT22;32931;47.778;17.806;2022-09-09T05:35:59;17.90;99.90
47168;DHT22;32931;47.778;17.806;2022-09-09T05:38:26;18.00;99.90
47168;DHT22;32931;47.778;17.806;2022-09-09T05:40:52;18.00;99.90
47168;DHT22;32931;47.778;17.806;2022-09-09T05:43:20;18.00;99.90
47168;DHT22;32931;47.778;17.806;2022-09-09T05:45:47;18.10;99.90
47168;DHT22;32931;47.778;17.806;2022-09-09T05:48:14;18.10;99.90
47168;DHT22;32931;47.778;17.806;2022-09-09T05:50:52;18.20;99.90
47168;DHT22;32931;47.778;17.806;2022-09-09T05:53:18;18.10;99.90
47168;DHT22;32931;47.778;17.806;2022-09-09T05:55:44;18.20;99.90
47168;DHT22;32931;47.778;17.806;2022-09-09T05:58:11;18.20;99.90
47168;DHT22;32931;47.778;17.806;2022-09-09T06:00:37;18.20;99.90
47168;DHT22;32931;47.778;17.806;2022-09-09T06:03:04;18.30;99.90
47168;DHT22;32931;47.778;17.806;2022-09-09T06:05:30;18.30;99.90
47168;DHT22;32931;47.778;17.806;2022-09-09T06:07:56;18.30;99.90
47168;DHT22;32931;47.778;17.806;2022-09-09T06:10:22;18.20;99.90
47168;DHT22;32931;47.778;17.806;2022-09-09T06:12:51;18.30;99.90
47168;DHT22;32931;47.778;17.806;2022-09-09T06:15:18;18.30;99.90
47168;DHT22;32931;47.778;17.806;2022-09-09T06:17:44;18.40;99.90
47168;DHT22;32931;47.778;17.806;2022-09-09T06:20:11;18.40;99.90
47168;DHT22;32931;47.778;17.806;2022-09-09T06:22:40;18.40;99.90
47168;DHT22;32931;47.778;17.806;2022-09-09T06:25:08;18.40;99.90
47168;DHT22;32931;47.778;17.806;2022-09-09T06:27:35;18.40;99.90
47168;DHT22;32931;47.778;17.806;2022-09-09T06:30:01;18.40;99.90
47168;DHT22;32931;47.778;17.806;2022-09-09T06:32:28;18.50;99.90
47168;DHT22;32931;47.778;17.806;2022-09-09T06:34:54;18.60;99.90
47168;DHT22;32931;47.778;17.806;2022-09-09T06:37:21;18.60;99.90
47168;DHT22;32931;47.778;17.806;2022-09-09T06:39:49;18.60;99.90
47168;DHT22;32931;47.778;17.806;2022-09-09T06:42:16;18.70;99.90
47168;DHT22;32931;47.778;17.806;2022-09-09T06:44:42;18.70;99.90
47168;DHT22;32931;47.778;17.806;2022-09-09T06:47:09;18.80;99.90
47168;DHT22;32931;47.778;17.806;2022-09-09T06:49:35;18.90;99.90
47168;DHT22;32931;47.778;17.806;2022-09-09T06:52:01;19.00;99.90
47168;DHT22;32931;47.778;17.806;2022-09-09T06:54:27;19.00;99.90
47168;DHT22;32931;47.778;17.806;2022-09-09T06:56:54;19.10;99.90
47168;DHT22;32931;47.778;17.806;2022-09-09T06:59:20;19.20;99.90
47168;DHT22;32931;47.778;17.806;2022-09-09T07:01:47;19.30;99.90
47168;DHT22;32931;47.778;17.806;2022-09-09T07:04:13;19.40;99.90
47168;DHT22;32931;47.778;17.806;2022-09-09T07:06:41;19.50;99.90
47168;DHT22;32931;47.778;17.806;2022-09-09T07:09:11;19.50;99.90
47168;DHT22;32931;47.778;17.806;2022-09-09T07:11:43;19.50;99.90
47168;DHT22;32931;47.778;17.806;2022-09-09T07:14:09;19.60;99.90
47168;DHT22;32931;47.778;17.806;2022-09-09T07:16:43;19.70;99.90
47168;DHT22;32931;47.778;17.806;2022-09-09T07:19:11;19.80;99.90
47168;DHT22;32931;47.778;17.806;2022-09-09T07:21:37;19.80;99.90
47168;DHT22;32931;47.778;17.806;2022-09-09T07:24:05;19.90;99.90
47168;DHT22;32931;47.778;17.806;2022-09-09T07:26:33;19.90;99.90
47168;DHT22;32931;47.778;17.806;2022-09-09T07:29:00;20.00;99.90
47168;DHT22;32931;47.778;17.806;2022-09-09T07:31:29;20.10;99.90
47168;DHT22;32931;47.778;17.806;2022-09-09T07:33:59;20.10;99.90
47168;DHT22;32931;47.778;17.806;2022-09-09T07:36:27;20.20;99.90
47168;DHT22;32931;47.778;17.806;2022-09-09T07:38:57;20.30;99.90
47168;DHT22;32931;47.778;17.806;2022-09-09T07:41:36;20.40;99.90
47168;DHT22;32931;47.778;17.806;2022-09-09T07:44:08;20.40;99.90
47168;DHT22;32931;47.778;17.806;2022-09-09T07:46:36;20.50;99.90
47168;DHT22;32931;47.778;17.806;2022-09-09T07:49:04;20.50;99.90
47168;DHT22;32931;47.778;17.806;2022-09-09T07:51:34;20.60;99.90
47168;DHT22;32931;47.778;17.806;2022-09-09T07:54:05;20.60;99.90
47168;DHT22;32931;47.778;17.806;2022-09-09T07:56:33;20.70;99.90
47168;DHT22;32931;47.778;17.806;2022-09-09T07:58:59;20.80;99.90
47168;DHT22;32931;47.778;17.806;2022-09-09T08:01:46;20.90;99.90
47168;DHT22;32931;47.778;17.806;2022-09-09T08:04:16;21.00;99.90
47168;DHT22;32931;47.778;17.806;2022-09-09T08:06:46;21.00;99.90
47168;DHT22;32931;47.778;17.806;2022-09-09T08:09:13;21.10;99.90
47168;DHT22;32931;47.778;17.806;2022-09-09T08:11:40;21.20;99.90
47168;DHT22;32931;47.778;17.806;2022-09-09T08:14:08;21.20;99.90
47168;DHT22;32931;47.778;17.806;2022-09-09T08:16:37;21.30;99.90
47168;DHT22;32931;47.778;17.806;2022-09-09T08:19:04;21.40;99.90
47168;DHT22;32931;47.778;17.806;2022-09-09T08:21:32;21.50;99.90
47168;DHT22;32931;47.778;17.806;2022-09-09T08:24:00;21.50;99.90
47168;DHT22;32931;47.778;17.806;2022-09-09T08:26:29;21.60;99.90
47168;DHT22;32931;47.778;17.806;2022-09-09T08:28:57;21.60;99.90
47168;DHT22;32931;47.778;17.806;2022-09-09T08:33:51;21.80;99.90
47168;DHT22;32931;47.778;17.806;2022-09-09T08:36:20;21.90;99.90
47168;DHT22;32931;47.778;17.806;2022-09-09T08:38:49;22.00;99.90
47168;DHT22;32931;47.778;17.806;2022-09-09T08:50:07;22.20;99.90
47168;DHT22;32931;47.778;17.806;2022-09-09T08:52:53;22.20;99.90
47168;DHT22;32931;47.778;17.806;2022-09-09T08:55:25;22.30;99.90
47168;DHT22;32931;47.778;17.806;2022-09-09T08:57:56;22.30;99.90
47168;DHT22;32931;47.778;17.806;2022-09-09T09:00:31;22.30;99.90
47168;DHT22;32931;47.778;17.806;2022-09-09T09:03:13;22.40;99.90
47168;DHT22;32931;47.778;17.806;2022-09-09T09:06:04;22.50;99.90
47168;DHT22;32931;47.778;17.806;2022-09-09T09:08:53;22.60;99.90
47168;DHT22;32931;47.778;17.806;2022-09-09T09:11:21;22.70;99.90
47168;DHT22;32931;47.778;17.806;2022-09-09T09:13:58;22.70;99.90
47168;DHT22;32931;47.778;17.806;2022-09-09T09:16:41;22.80;99.90
47168;DHT22;32931;47.778;17.806;2022-09-09T09:19:13;22.90;99.90
47168;DHT22;32931;47.778;17.806;2022-09-09T09:24:27;23.00;99.90
47168;DHT22;32931;47.778;17.806;2022-09-09T09:26:54;23.10;99.90
47168;DHT22;32931;47.778;17.806;2022-09-09T09:29:21;23.10;99.90
47168;DHT22;32931;47.778;17.806;2022-09-09T09:31:53;23.20;99.90
47168;DHT22;32931;47.778;17.806;2022-09-09T09:34:23;23.30;99.90
47168;DHT22;32931;47.778;17.806;2022-09-09T09:36:56;23.30;99.90
47168;DHT22;32931;47.778;17.806;2022-09-09T09:39:24;23.40;99.90
47168;DHT22;32931;47.778;17.806;2022-09-09T09:41:51;23.40;99.90
47168;DHT22;32931;47.778;17.806;2022-09-09T09:44:31;23.50;99.90
47168;DHT22;32931;47.778;17.806;2022-09-09T09:47:17;23.60;99.90
47168;DHT22;32931;47.778;17.806;2022-09-09T09:49:54;23.70;99.90
47168;DHT22;32931;47.778;17.806;2022-09-09T09:52:23;23.80;99.90
47168;DHT22;32931;47.778;17.806;2022-09-09T09:54:50;23.90;99.90
47168;DHT22;32931;47.778;17.806;2022-09-09T09:57:18;24.00;99.90
47168;DHT22;32931;47.778;17.806;2022-09-09T09:59:48;24.10;99.90
47168;DHT22;32931;47.778;17.806;2022-09-09T10:02:20;24.10;99.90
47168;DHT22;32931;47.778;17.806;2022-09-09T10:04:49;24.20;99.50
47168;DHT22;32931;47.778;17.806;2022-09-09T10:07:27;24.30;99.50
47168;DHT22;32931;47.778;17.806;2022-09-09T10:09:55;24.30;98.80
47168;DHT22;32931;47.778;17.806;2022-09-09T10:15:21;24.50;98.30
47168;DHT22;32931;47.778;17.806;2022-09-09T10:21:28;24.60;96.00
47168;DHT22;32931;47.778;17.806;2022-09-09T10:57:33;25.80;91.90
47168;DHT22;32931;47.778;17.806;2022-09-09T11:00:13;25.70;91.20
47168;DHT22;32931;47.778;17.806;2022-09-09T11:02:41;25.70;91.50
47168;DHT22;32931;47.778;17.806;2022-09-09T11:05:19;25.70;91.80
47168;DHT22;32931;47.778;17.806;2022-09-09T11:07:59;25.80;91.40
47168;DHT22;32931;47.778;17.806;2022-09-09T11:10:51;25.80;91.30
47168;DHT22;32931;47.778;17.806;2022-09-09T11:13:39;25.90;91.60
47168;DHT22;32931;47.778;17.806;2022-09-09T11:19:09;26.30;93.10
47168;DHT22;32931;47.778;17.806;2022-09-09T11:21:44;26.40;92.60
47168;DHT22;32931;47.778;17.806;2022-09-09T11:27:00;26.60;90.40
47168;DHT22;32931;47.778;17.806;2022-09-09T11:30:13;26.50;90.00
47168;DHT22;32931;47.778;17.806;2022-09-09T11:38:46;26.40;90.10
47168;DHT22;32931;47.778;17.806;2022-09-09T11:41:14;26.50;89.00
47168;DHT22;32931;47.778;17.806;2022-09-09T11:43:49;26.40;90.10
47168;DHT22;32931;47.778;17.806;2022-09-09T11:46:20;26.50;89.90
47168;DHT22;32931;47.778;17.806;2022-09-09T11:49:03;26.50;90.50
47168;DHT22;32931;47.778;17.806;2022-09-09T11:51:31;26.60;89.70
47168;DHT22;32931;47.778;17.806;2022-09-09T11:54:00;26.70;90.00
47168;DHT22;32931;47.778;17.806;2022-09-09T11:56:29;26.70;90.00
47168;DHT22;32931;47.778;17.806;2022-09-09T11:59:05;26.60;89.60
47168;DHT22;32931;47.778;17.806;2022-09-09T12:06:52;26.40;88.30
47168;DHT22;32931;47.778;17.806;2022-09-09T12:11:45;26.20;85.90
47168;DHT22;32931;47.778;17.806;2022-09-09T12:14:42;26.10;86.10
47168;DHT22;32931;47.778;17.806;2022-09-09T12:17:19;26.00;84.50
47168;DHT22;32931;47.778;17.806;2022-09-09T12:19:45;26.00;83.80
47168;DHT22;32931;47.778;17.806;2022-09-09T12:22:33;25.90;86.30
47168;DHT22;32931;47.778;17.806;2022-09-09T12:25:18;25.90;87.50
47168;DHT22;32931;47.778;17.806;2022-09-09T12:28:05;25.90;83.90
47168;DHT22;32931;47.778;17.806;2022-09-09T12:30:49;25.90;83.70
47168;DHT22;32931;47.778;17.806;2022-09-09T12:33:21;25.90;85.00
47168;DHT22;32931;47.778;17.806;2022-09-09T12:35:58;26.00;84.50
47168;DHT22;32931;47.778;17.806;2022-09-09T12:38:35;26.10;81.80
47168;DHT22;32931;47.778;17.806;2022-09-09T12:41:03;26.10;84.00
47168;DHT22;32931;47.778;17.806;2022-09-09T12:43:29;26.20;84.10
47168;DHT22;32931;47.778;17.806;2022-09-09T12:46:02;26.20;84.20
47168;DHT22;32931;47.778;17.806;2022-09-09T12:48:47;26.30;84.00
47168;DHT22;32931;47.778;17.806;2022-09-09T12:51:28;26.40;81.50
47168;DHT22;32931;47.778;17.806;2022-09-09T12:53:56;26.40;81.00
47168;DHT22;32931;47.778;17.806;2022-09-09T12:56:28;26.40;82.10
47168;DHT22;32931;47.778;17.806;2022-09-09T12:58:57;26.40;81.70
47168;DHT22;32931;47.778;17.806;2022-09-09T13:01:29;26.40;81.80
47168;DHT22;32931;47.778;17.806;2022-09-09T13:03:56;26.40;81.00
47168;DHT22;32931;47.778;17.806;2022-09-09T13:06:30;26.40;82.00
47168;DHT22;32931;47.778;17.806;2022-09-09T13:08:59;26.50;82.00
47168;DHT22;32931;47.778;17.806;2022-09-09T13:11:38;26.60;82.40
47168;DHT22;32931;47.778;17.806;2022-09-09T13:14:06;26.70;81.90
47168;DHT22;32931;47.778;17.806;2022-09-09T13:16:35;26.70;82.50
47168;DHT22;32931;47.778;17.806;2022-09-09T13:19:13;26.70;81.90
47168;DHT22;32931;47.778;17.806;2022-09-09T13:21:40;26.80;83.50
47168;DHT22;32931;47.778;17.806;2022-09-09T13:24:31;26.80;83.30
47168;DHT22;32931;47.778;17.806;2022-09-09T13:27:03;26.80;84.00
47168;DHT22;32931;47.778;17.806;2022-09-09T13:29:31;26.80;80.70
47168;DHT22;32931;47.778;17.806;2022-09-09T13:32:16;26.70;80.50
47168;DHT22;32931;47.778;17.806;2022-09-09T13:34:57;26.70;82.20
47168;DHT22;32931;47.778;17.806;2022-09-09T13:37:33;26.70;77.80
47168;DHT22;32931;47.778;17.806;2022-09-09T13:40:01;26.70;80.10
47168;DHT22;32931;47.778;17.806;2022-09-09T13:42:30;26.70;80.10
47168;DHT22;32931;47.778;17.806;2022-09-09T13:44:59;26.60;78.20
47168;DHT22;32931;47.778;17.806;2022-09-09T13:47:37;26.60;78.50
47168;DHT22;32931;47.778;17.806;2022-09-09T13:50:24;26.60;81.50
47168;DHT22;32931;47.778;17.806;2022-09-09T13:52:55;26.60;77.50
47168;DHT22;32931;47.778;17.806;2022-09-09T13:55:23;26.50;78.90
47168;DHT22;32931;47.778;17.806;2022-09-09T13:57:56;26.50;78.30
47168;DHT22;32931;47.778;17.806;2022-09-09T14:00:24;26.40;79.00
47168;DHT22;32931;47.778;17.806;2022-09-09T14:02:50;26.30;78.10
47168;DHT22;32931;47.778;17.806;2022-09-09T14:05:18;26.30;78.30
47168;DHT22;32931;47.778;17.806;2022-09-09T14:07:45;26.30;78.40
47168;DHT22;32931;47.778;17.806;2022-09-09T14:10:12;26.20;78.10
47168;DHT22;32931;47.778;17.806;2022-09-09T14:12:38;26.10;77.90
47168;DHT22;32931;47.778;17.806;2022-09-09T14:15:06;26.20;78.40
47168;DHT22;32931;47.778;17.806;2022-09-09T14:17:33;26.10;78.50
47168;DHT22;32931;47.778;17.806;2022-09-09T14:20:04;26.10;78.30
47168;DHT22;32931;47.778;17.806;2022-09-09T14:22:34;26.00;78.40
47168;DHT22;32931;47.778;17.806;2022-09-09T14:25:02;25.90;81.40
47168;DHT22;32931;47.778;17.806;2022-09-09T14:27:28;25.90;79.70
47168;DHT22;32931;47.778;17.806;2022-09-09T14:29:55;25.90;78.60
47168;DHT22;32931;47.778;17.806;2022-09-09T14:32:23;25.90;77.90
47168;DHT22;32931;47.778;17.806;2022-09-09T14:34:49;25.90;78.50
47168;DHT22;32931;47.778;17.806;2022-09-09T14:37:16;25.80;78.30
47168;DHT22;32931;47.778;17.806;2022-09-09T14:39:43;25.90;78.60
47168;DHT22;32931;47.778;17.806;2022-09-09T14:42:13;25.90;78.90
47168;DHT22;32931;47.778;17.806;2022-09-09T14:44:40;25.90;79.40
47168;DHT22;32931;47.778;17.806;2022-09-09T14:47:07;25.90;78.70
47168;DHT22;32931;47.778;17.806;2022-09-09T14:49:34;25.80;78.90
47168;DHT22;32931;47.778;17.806;2022-09-09T14:52:01;25.70;79.10
47168;DHT22;32931;47.778;17.806;2022-09-09T14:54:28;25.80;79.70
47168;DHT22;32931;47.778;17.806;2022-09-09T14:56:54;25.80;79.50
47168;DHT22;32931;47.778;17.806;2022-09-09T14:59:20;25.70;79.40
47168;DHT22;32931;47.778;17.806;2022-09-09T15:01:48;25.80;78.70
47168;DHT22;32931;47.778;17.806;2022-09-09T15:04:14;25.80;78.60
47168;DHT22;32931;47.778;17.806;2022-09-09T15:06:43;25.80;78.00
47168;DHT22;32931;47.778;17.806;2022-09-09T15:09:12;25.80;78.50
47168;DHT22;32931;47.778;17.806;2022-09-09T15:11:39;25.80;78.60
47168;DHT22;32931;47.778;17.806;2022-09-09T15:14:07;25.70;78.20
47168;DHT22;32931;47.778;17.806;2022-09-09T15:16:34;25.70;78.10
47168;DHT22;32931;47.778;17.806;2022-09-09T15:19:01;25.70;79.30
47168;DHT22;32931;47.778;17.806;2022-09-09T15:21:30;25.70;78.70
47168;DHT22;32931;47.778;17.806;2022-09-09T15:23:57;25.70;79.50
47168;DHT22;32931;47.778;17.806;2022-09-09T15:26:24;25.70;79.10
47168;DHT22;32931;47.778;17.806;2022-09-09T15:28:50;25.70;78.90
47168;DHT22;32931;47.778;17.806;2022-09-09T15:31:20;25.70;79.40
47168;DHT22;32931;47.778;17.806;2022-09-09T15:33:51;25.60;79.40
47168;DHT22;32931;47.778;17.806;2022-09-09T15:36:23;25.60;79.40
47168;DHT22;32931;47.778;17.806;2022-09-09T15:38:50;25.60;81.30
47168;DHT22;32931;47.778;17.806;2022-09-09T15:41:18;25.60;80.00
47168;DHT22;32931;47.778;17.806;2022-09-09T15:43:55;25.60;80.20
47168;DHT22;32931;47.778;17.806;2022-09-09T15:46:36;25.60;81.80
47168;DHT22;32931;47.778;17.806;2022-09-09T15:49:17;25.60;81.50
47168;DHT22;32931;47.778;17.806;2022-09-09T15:51:57;25.60;82.20
47168;DHT22;32931;47.778;17.806;2022-09-09T15:54:25;25.60;81.80
47168;DHT22;32931;47.778;17.806;2022-09-09T15:56:54;25.50;80.80
47168;DHT22;32931;47.778;17.806;2022-09-09T15:59:23;25.50;80.90
47168;DHT22;32931;47.778;17.806;2022-09-09T16:01:49;25.40;81.40
47168;DHT22;32931;47.778;17.806;2022-09-09T16:04:18;25.40;82.60
47168;DHT22;32931;47.778;17.806;2022-09-09T16:06:55;25.40;82.30
47168;DHT22;32931;47.778;17.806;2022-09-09T16:09:21;25.40;81.30
47168;DHT22;32931;47.778;17.806;2022-09-09T16:11:47;25.30;81.90
47168;DHT22;32931;47.778;17.806;2022-09-09T16:14:14;25.30;82.50
47168;DHT22;32931;47.778;17.806;2022-09-09T16:16:44;25.30;83.90
47168;DHT22;32931;47.778;17.806;2022-09-09T16:19:12;25.30;82.60
47168;DHT22;32931;47.778;17.806;2022-09-09T16:21:40;25.30;82.10
47168;DHT22;32931;47.778;17.806;2022-09-09T16:24:10;25.20;82.20
47168;DHT22;32931;47.778;17.806;2022-09-09T16:26:40;25.20;82.00
47168;DHT22;32931;47.778;17.806;2022-09-09T16:29:07;25.20;81.90
47168;DHT22;32931;47.778;17.806;2022-09-09T16:31:34;25.10;82.10
47168;DHT22;32931;47.778;17.806;2022-09-09T16:34:00;25.10;82.10
47168;DHT22;32931;47.778;17.806;2022-09-09T16:36:30;25.10;82.60
47168;DHT22;32931;47.778;17.806;2022-09-09T16:39:02;25.00;82.30
47168;DHT22;32931;47.778;17.806;2022-09-09T16:41:29;25.00;83.60
47168;DHT22;32931;47.778;17.806;2022-09-09T16:44:01;25.00;82.40
47168;DHT22;32931;47.778;17.806;2022-09-09T16:46:29;24.90;82.90
47168;DHT22;32931;47.778;17.806;2022-09-09T16:48:57;24.90;82.60
47168;DHT22;32931;47.778;17.806;2022-09-09T16:51:32;24.90;83.30
47168;DHT22;32931;47.778;17.806;2022-09-09T16:54:00;24.90;83.70
47168;DHT22;32931;47.778;17.806;2022-09-09T16:56:29;24.80;83.40
47168;DHT22;32931;47.778;17.806;2022-09-09T16:58:58;24.80;84.10
47168;DHT22;32931;47.778;17.806;2022-09-09T17:01:27;24.80;84.80
47168;DHT22;32931;47.778;17.806;2022-09-09T17:03:57;24.80;85.70
47168;DHT22;32931;47.778;17.806;2022-09-09T17:06:24;24.70;85.90
47168;DHT22;32931;47.778;17.806;2022-09-09T17:08:56;24.70;86.40
47168;DHT22;32931;47.778;17.806;2022-09-09T17:11:23;24.60;86.20
47168;DHT22;32931;47.778;17.806;2022-09-09T17:13:50;24.60;86.70
47168;DHT22;32931;47.778;17.806;2022-09-09T17:16:19;24.50;87.00
47168;DHT22;32931;47.778;17.806;2022-09-09T17:18:51;24.40;87.90
47168;DHT22;32931;47.778;17.806;2022-09-09T17:21:20;24.40;88.40
47168;DHT22;32931;47.778;17.806;2022-09-09T17:23:47;24.30;88.70
47168;DHT22;32931;47.778;17.806;2022-09-09T17:26:17;24.30;89.10
47168;DHT22;32931;47.778;17.806;2022-09-09T17:28:44;24.20;88.60
47168;DHT22;32931;47.778;17.806;2022-09-09T17:31:13;24.20;89.30
47168;DHT22;32931;47.778;17.806;2022-09-09T17:33:42;24.10;89.60
47168;DHT22;32931;47.778;17.806;2022-09-09T17:36:16;24.10;90.10